Time;durP1;ratioP1;P1;durP2;ratioP2;P2;SDS_P1;SDS_P2;PMS_P1;PMS_P2;Temp;Humidity;BMP_temperature;BMP_pressure;BME280_temperature;BME280_humidity;BME280_pressure;Samples;Min_cycle;Max_cycle;Signal;HPM_P1;HPM_P2
2021/12/02 00:02:20;;;;;;;5.18;1.08;;;5.30;99.90;;;;;;5099196;27;20142;-69
2021/12/02 00:04:47;;;;;;;8.95;1.30;;;5.40;99.90;;;;;;5099240;27;20130;-69
2021/12/02 00:07:13;;;;;;;14.93;1.20;;;5.40;99.90;;;;;;5115185;27;20126;-70
2021/12/02 00:09:39;;;;;;;6.38;1.08;;;5.40;99.90;;;;;;5116183;27;20070;-69
2021/12/02 00:12:06;;;;;;;7.18;1.50;;;5.50;99.90;;;;;;5098803;27;20132;-69
2021/12/02 00:14:47;;;;;;;8.45;1.45;;;5.50;99.90;;;;;;5099101;27;20040;-69
2021/12/02 00:17:20;;;;;;;13.52;2.45;;;5.50;99.90;;;;;;5099100;27;20414;-70
2021/12/02 00:22:33;;;;;;;14.23;2.50;;;5.40;99.90;;;;;;5115780;27;20073;-69
2021/12/02 00:25:02;;;;;;;9.57;2.13;;;5.40;99.90;;;;;;5115229;27;20145;-70
2021/12/02 00:27:33;;;;;;;12.63;1.60;;;5.30;99.90;;;;;;5098517;27;20079;-69
2021/12/02 00:30:32;;;;;;;7.15;1.25;;;5.30;99.90;;;;;;5088496;27;20516;-70
2021/12/02 00:33:30;;;;;;;7.82;0.77;;;5.30;99.90;;;;;;5100886;27;20055;-70
2021/12/02 00:35:56;;;;;;;2.60;0.50;;;5.10;99.90;;;;;;5098332;27;20046;-70
2021/12/02 00:38:24;;;;;;;14.45;3.33;;;5.10;99.90;;;;;;5115277;27;20047;-70
2021/12/02 00:40:51;;;;;;;5.43;1.17;;;5.10;99.90;;;;;;5098103;27;20059;-70
2021/12/02 00:43:18;;;;;;;10.05;1.98;;;5.10;99.90;;;;;;5097993;27;20049;-69
2021/12/02 00:45:45;;;;;;;20.45;3.47;;;5.00;99.90;;;;;;5115175;27;20494;-70
2021/12/02 00:48:13;;;;;;;13.07;2.35;;;4.90;99.90;;;;;;5114823;27;20047;-69
2021/12/02 00:50:44;;;;;;;12.27;2.17;;;4.90;99.90;;;;;;5115461;27;20460;-69
2021/12/02 00:53:10;;;;;;;14.18;1.70;;;4.80;99.90;;;;;;5098228;27;20039;-69
2021/12/02 00:55:41;;;;;;;8.23;1.45;;;4.70;99.90;;;;;;5114880;27;20090;-69
2021/12/02 00:58:11;;;;;;;10.77;1.67;;;4.70;99.90;;;;;;5114919;27;20047;-70
2021/12/02 01:00:39;;;;;;;12.82;1.30;;;4.60;99.90;;;;;;5097187;27;20478;-69
2021/12/02 01:03:05;;;;;;;9.95;1.55;;;4.50;99.90;;;;;;5114940;27;20069;-70
2021/12/02 01:05:31;;;;;;;8.00;1.00;;;4.40;99.90;;;;;;5097833;27;20054;-70
2021/12/02 01:08:01;;;;;;;6.38;1.10;;;4.30;99.90;;;;;;5114928;27;20051;-69
2021/12/02 01:10:27;;;;;;;4.97;0.70;;;4.30;99.90;;;;;;5097669;27;20189;-70
2021/12/02 01:12:53;;;;;;;9.40;1.52;;;4.30;99.90;;;;;;5115006;27;20447;-70
2021/12/02 01:15:19;;;;;;;10.82;1.38;;;4.20;99.90;;;;;;5097638;27;20399;-70
2021/12/02 01:17:45;;;;;;;9.10;1.30;;;4.20;99.90;;;;;;5114594;27;20051;-69
2021/12/02 01:20:11;;;;;;;10.63;1.85;;;4.20;99.90;;;;;;5114678;27;20043;-69
2021/12/02 01:22:38;;;;;;;6.35;0.90;;;4.20;99.90;;;;;;5114605;27;20043;-69
2021/12/02 01:25:06;;;;;;;5.97;1.17;;;4.20;99.90;;;;;;5114432;27;20411;-69
2021/12/02 01:27:37;;;;;;;7.68;0.93;;;4.10;99.90;;;;;;5097354;27;20054;-69
2021/12/02 01:30:05;;;;;;;5.07;1.15;;;4.10;99.90;;;;;;5114649;27;20099;-69
2021/12/02 01:32:34;;;;;;;6.20;0.90;;;4.10;99.90;;;;;;5114160;27;20043;-69
2021/12/02 01:35:04;;;;;;;10.23;0.95;;;4.00;99.90;;;;;;5114307;27;20061;-69
2021/12/02 01:37:31;;;;;;;7.55;1.08;;;4.00;99.90;;;;;;5097110;27;20055;-69
2021/12/02 01:39:58;;;;;;;10.27;1.10;;;3.90;99.90;;;;;;5114180;27;20047;-69
2021/12/02 01:42:27;;;;;;;12.00;1.10;;;3.90;99.90;;;;;;5097135;27;20051;-69
2021/12/02 01:44:56;;;;;;;7.95;0.80;;;3.90;99.90;;;;;;5113954;27;20126;-69
2021/12/02 01:47:25;;;;;;;13.45;1.30;;;3.90;99.90;;;;;;5114390;27;20061;-69
2021/12/02 01:49:54;;;;;;;9.93;1.17;;;4.00;99.90;;;;;;5097458;27;20121;-69
2021/12/02 01:52:26;;;;;;;6.63;0.85;;;4.00;99.90;;;;;;5132819;27;20084;-69
2021/12/02 01:55:09;;;;;;;9.82;1.00;;;4.10;99.90;;;;;;5114036;28;20094;-70
2021/12/02 01:57:39;;;;;;;6.75;0.70;;;4.10;99.90;;;;;;5132596;28;20129;-69
2021/12/02 02:00:15;;;;;;;3.92;0.43;;;4.20;99.90;;;;;;5099155;27;20452;-69
2021/12/02 02:02:41;;;;;;;7.47;0.45;;;4.20;99.90;;;;;;5101587;27;20100;-69
2021/12/02 02:05:12;;;;;;;1.95;0.73;;;4.10;99.90;;;;;;5118242;27;20047;-70
2021/12/02 02:07:59;;;;;;;3.83;0.32;;;4.20;99.90;;;;;;5118149;27;20055;-70
2021/12/02 02:10:29;;;;;;;2.88;1.38;;;4.10;99.90;;;;;;5118388;27;20054;-69
2021/12/02 02:12:58;;;;;;;1.25;0.38;;;4.10;99.90;;;;;;5118067;27;20079;-69
2021/12/02 02:15:25;;;;;;;7.97;0.95;;;4.20;99.90;;;;;;5100812;27;20059;-70
2021/12/02 02:21:10;;;;;;;13.48;1.67;;;4.30;99.90;;;;;;5117922;27;20047;-69
2021/12/02 02:23:38;;;;;;;6.18;0.80;;;4.20;99.90;;;;;;5117413;27;20051;-69
2021/12/02 02:26:06;;;;;;;5.88;0.70;;;4.20;99.90;;;;;;5117352;27;20055;-69
2021/12/02 02:28:33;;;;;;;7.45;1.08;;;4.20;99.90;;;;;;5101531;27;20055;-69
2021/12/02 02:30:59;;;;;;;12.27;1.35;;;4.20;99.90;;;;;;5117968;27;20043;-70
2021/12/02 02:33:33;;;;;;;4.85;0.90;;;4.10;99.90;;;;;;5117971;27;20449;-69
2021/12/02 02:35:59;;;;;;;9.73;2.60;;;4.00;99.90;;;;;;5100615;27;20051;-69
2021/12/02 02:38:25;;;;;;;3.00;0.40;;;3.90;99.90;;;;;;5117357;27;20097;-69
2021/12/02 02:40:51;;;;;;;1.65;0.40;;;3.90;99.90;;;;;;5117496;27;20051;-69
2021/12/02 02:43:23;;;;;;;1.92;0.32;;;3.80;99.90;;;;;;5100469;27;20058;-69
2021/12/02 02:45:49;;;;;;;4.57;0.50;;;3.80;99.90;;;;;;5101611;27;20058;-70
2021/12/02 02:48:15;;;;;;;4.22;0.40;;;3.70;99.90;;;;;;5117483;27;20498;-69
2021/12/02 02:50:41;;;;;;;3.83;0.47;;;3.60;99.90;;;;;;5117368;27;20585;-69
2021/12/02 02:53:16;;;;;;;4.18;0.43;;;3.60;99.90;;;;;;5099745;27;20122;-69
2021/12/02 02:55:47;;;;;;;6.13;2.22;;;3.50;99.90;;;;;;5116949;27;20080;-70
2021/12/02 03:01:39;;;;;;;2.70;0.38;;;3.50;99.90;;;;;;5117073;27;20112;-69
2021/12/02 03:04:17;;;;;;;6.10;0.50;;;3.50;99.90;;;;;;5106566;27;20059;-70
2021/12/02 03:09:06;;;;;;;8.25;1.85;;;3.40;99.90;;;;;;5117223;27;20047;-70
2021/12/02 03:11:44;;;;;;;4.70;0.80;;;3.30;99.90;;;;;;5100189;27;20099;-70
2021/12/02 03:14:12;;;;;;;10.50;0.60;;;3.20;99.90;;;;;;5116900;27;20043;-69
2021/12/02 03:16:45;;;;;;;4.85;0.68;;;3.20;99.90;;;;;;5116914;27;20047;-70
2021/12/02 03:19:22;;;;;;;9.15;0.65;;;3.20;99.90;;;;;;5116870;27;20043;-70
2021/12/02 03:21:48;;;;;;;3.25;0.40;;;3.30;99.90;;;;;;5116731;27;20055;-70
2021/12/02 03:24:15;;;;;;;4.28;1.23;;;3.50;99.90;;;;;;5074980;28;20157;-70
2021/12/02 03:26:41;;;;;;;4.47;0.75;;;3.60;99.90;;;;;;5091823;28;20466;-69
2021/12/02 03:29:07;;;;;;;5.97;0.90;;;3.70;99.90;;;;;;5091781;28;20040;-69
2021/12/02 03:31:33;;;;;;;3.92;1.02;;;3.80;99.90;;;;;;5074457;28;20083;-70
2021/12/02 03:34:00;;;;;;;6.18;0.68;;;3.90;99.90;;;;;;5057832;28;20643;-69
2021/12/02 03:36:27;;;;;;;6.35;0.55;;;4.00;99.90;;;;;;5058279;28;20051;-69
2021/12/02 03:38:53;;;;;;;3.25;0.80;;;4.00;99.90;;;;;;5091510;28;20231;-69
2021/12/02 03:41:20;;;;;;;7.40;0.80;;;4.10;99.90;;;;;;5057855;28;20105;-69
2021/12/02 03:43:48;;;;;;;5.53;0.80;;;4.10;99.90;;;;;;5074307;28;20488;-70
2021/12/02 03:46:27;;;;;;;6.28;0.60;;;4.20;99.90;;;;;;5059768;28;20144;-69
2021/12/02 03:48:54;;;;;;;6.43;0.73;;;4.20;99.90;;;;;;5074468;28;20040;-71
2021/12/02 03:51:22;;;;;;;12.30;0.85;;;4.20;99.90;;;;;;5074506;28;20056;-70
2021/12/02 03:53:48;;;;;;;8.48;0.82;;;4.30;99.90;;;;;;5074728;28;20123;-69
2021/12/02 03:56:15;;;;;;;7.07;0.70;;;4.30;99.90;;;;;;5114271;27;20055;-69
2021/12/02 03:58:43;;;;;;;8.20;1.13;;;4.40;99.90;;;;;;5116085;27;20051;-69
2021/12/02 04:01:09;;;;;;;7.65;0.95;;;4.40;99.90;;;;;;5115945;27;20091;-69
2021/12/02 04:03:36;;;;;;;9.13;1.20;;;4.50;99.90;;;;;;5116059;27;20043;-70
2021/12/02 04:06:03;;;;;;;5.45;0.68;;;4.50;99.90;;;;;;5116129;27;20055;-70
2021/12/02 04:08:31;;;;;;;5.85;0.73;;;4.60;99.90;;;;;;5098950;27;20047;-70
2021/12/02 04:14:10;;;;;;;7.95;0.95;;;4.40;99.90;;;;;;5115824;27;20083;-69
2021/12/02 04:16:31;;;;;;;9.63;0.75;;;4.30;99.90;;;;;;5114849;27;20070;-69
2021/12/02 04:18:57;;;;;;;4.35;0.50;;;4.30;99.90;;;;;;5115853;27;20473;-70
2021/12/02 04:21:22;;;;;;;11.45;1.35;;;4.20;99.90;;;;;;5098512;27;20086;-69
2021/12/02 04:23:48;;;;;;;3.55;0.47;;;4.20;99.90;;;;;;5114995;27;20146;-69
2021/12/02 04:26:14;;;;;;;8.27;1.33;;;4.10;99.90;;;;;;5115282;27;20108;-69
2021/12/02 04:28:40;;;;;;;8.75;2.50;;;4.10;99.90;;;;;;5115617;27;20097;-69
2021/12/02 04:31:06;;;;;;;3.67;0.55;;;4.10;99.90;;;;;;5098642;27;20050;-69
2021/12/02 04:33:32;;;;;;;4.95;0.60;;;4.10;99.90;;;;;;5115471;27;20494;-69
2021/12/02 04:35:59;;;;;;;8.45;1.02;;;4.10;99.90;;;;;;5098241;27;20044;-70
2021/12/02 04:38:26;;;;;;;7.18;1.58;;;4.10;99.90;;;;;;5098523;27;20125;-69
2021/12/02 04:40:53;;;;;;;16.27;1.55;;;4.00;99.90;;;;;;5098207;27;20047;-69
2021/12/02 04:43:19;;;;;;;12.00;1.95;;;3.90;99.90;;;;;;5115168;27;20498;-70
2021/12/02 04:45:44;;;;;;;6.47;0.90;;;3.80;99.90;;;;;;5114897;27;20051;-69
2021/12/02 04:48:10;;;;;;;8.25;1.10;;;3.70;99.90;;;;;;5098363;27;20113;-70
2021/12/02 04:50:42;;;;;;;7.88;0.90;;;3.70;99.90;;;;;;5115058;27;20047;-68
2021/12/02 04:53:08;;;;;;;12.40;1.38;;;3.60;99.90;;;;;;5098347;27;20375;-68
2021/12/02 04:55:34;;;;;;;11.35;1.77;;;3.50;99.90;;;;;;5115325;27;20199;-69
2021/12/02 04:58:00;;;;;;;6.60;0.70;;;3.40;99.90;;;;;;5097031;27;20616;-70
2021/12/02 05:00:26;;;;;;;8.23;0.98;;;3.40;99.90;;;;;;5114744;27;20107;-69
2021/12/02 05:02:52;;;;;;;9.23;0.95;;;3.30;99.90;;;;;;5133590;27;20527;-70
2021/12/02 05:05:18;;;;;;;13.30;1.50;;;3.40;99.90;;;;;;5097837;27;20134;-69
2021/12/02 05:07:44;;;;;;;13.88;1.40;;;3.40;99.90;;;;;;5114768;27;20053;-69
2021/12/02 05:10:10;;;;;;;9.48;1.90;;;3.40;99.90;;;;;;5114764;27;20513;-69
2021/12/02 05:12:41;;;;;;;9.07;1.25;;;3.50;99.90;;;;;;5097741;27;20096;-69
2021/12/02 05:15:07;;;;;;;7.85;0.95;;;3.50;99.90;;;;;;5114812;27;20053;-69
2021/12/02 05:17:33;;;;;;;8.38;1.45;;;3.60;99.90;;;;;;5097776;27;20047;-69
2021/12/02 05:19:59;;;;;;;6.93;0.88;;;3.70;99.90;;;;;;5097691;27;20053;-69
2021/12/02 05:22:24;;;;;;;6.47;0.70;;;3.70;99.90;;;;;;5132014;27;20092;-69
2021/12/02 05:24:50;;;;;;;10.57;0.88;;;3.60;99.90;;;;;;5114301;27;20047;-69
2021/12/02 05:27:16;;;;;;;5.53;0.68;;;3.60;99.90;;;;;;5114441;27;20490;-69
2021/12/02 05:29:42;;;;;;;8.88;1.48;;;3.50;99.90;;;;;;5114640;27;20054;-69
2021/12/02 05:32:08;;;;;;;3.50;1.00;;;3.60;99.90;;;;;;5114408;27;20481;-69
2021/12/02 05:34:34;;;;;;;4.28;0.30;;;3.60;99.90;;;;;;5096483;27;20043;-69
2021/12/02 05:37:00;;;;;;;9.25;0.60;;;3.60;99.90;;;;;;5097489;27;20127;-69
2021/12/02 05:39:26;;;;;;;5.75;0.50;;;3.70;99.90;;;;;;5114562;27;20482;-69
2021/12/02 05:41:53;;;;;;;4.88;0.52;;;3.60;99.90;;;;;;5114149;28;20047;-69
2021/12/02 05:44:21;;;;;;;6.65;0.47;;;3.70;99.90;;;;;;5132927;27;20456;-70
2021/12/02 05:46:47;;;;;;;4.15;0.50;;;3.60;99.90;;;;;;5114478;27;20039;-70
2021/12/02 05:49:12;;;;;;;1.27;0.20;;;3.60;99.90;;;;;;5114242;27;20053;-70
2021/12/02 05:51:41;;;;;;;3.95;0.50;;;3.60;99.90;;;;;;5097454;27;20047;-69
2021/12/02 05:54:08;;;;;;;8.00;0.50;;;3.60;99.90;;;;;;5114314;28;20047;-69
2021/12/02 05:56:33;;;;;;;9.23;0.60;;;3.60;99.90;;;;;;5114390;28;20451;-69
2021/12/02 05:58:59;;;;;;;4.20;0.50;;;3.50;99.90;;;;;;5114284;28;20083;-70
2021/12/02 06:01:26;;;;;;;5.55;0.68;;;3.50;99.90;;;;;;5113857;28;20051;-70
2021/12/02 06:03:52;;;;;;;5.68;0.57;;;3.50;99.90;;;;;;5097047;28;20074;-69
2021/12/02 06:06:19;;;;;;;7.30;0.60;;;3.50;99.90;;;;;;5096775;28;20542;-70
2021/12/02 06:08:45;;;;;;;3.05;0.45;;;3.50;99.90;;;;;;5096840;28;20052;-70
2021/12/02 06:11:11;;;;;;;2.20;0.32;;;3.50;99.90;;;;;;5114215;28;20104;-69
2021/12/02 06:13:38;;;;;;;3.53;0.35;;;3.50;99.90;;;;;;5097233;28;20051;-70
2021/12/02 06:16:04;;;;;;;5.90;0.47;;;3.50;99.90;;;;;;5097155;28;20054;-69
2021/12/02 06:18:30;;;;;;;3.97;0.50;;;3.50;99.90;;;;;;5096377;28;20044;-69
2021/12/02 06:20:55;;;;;;;4.07;0.63;;;3.50;99.90;;;;;;5113889;28;20044;-70
2021/12/02 06:23:22;;;;;;;6.18;0.45;;;3.60;99.90;;;;;;5114157;28;20039;-69
2021/12/02 06:25:48;;;;;;;6.70;0.73;;;3.60;99.90;;;;;;5113562;28;20141;-69
2021/12/02 06:28:18;;;;;;;4.90;0.32;;;3.60;99.90;;;;;;5113790;28;20058;-70
2021/12/02 06:30:45;;;;;;;2.90;0.20;;;3.60;99.90;;;;;;5096998;28;20050;-69
2021/12/02 06:33:11;;;;;;;4.85;0.57;;;3.60;99.90;;;;;;5113856;28;20051;-70
2021/12/02 06:35:38;;;;;;;2.78;0.35;;;3.60;99.90;;;;;;5096942;28;20116;-70
2021/12/02 06:38:04;;;;;;;4.80;0.50;;;3.50;99.90;;;;;;5096726;28;20074;-70
2021/12/02 06:40:31;;;;;;;4.43;0.28;;;3.50;99.90;;;;;;5096555;28;20070;-69
2021/12/02 06:42:57;;;;;;;2.42;0.45;;;3.40;99.90;;;;;;5096897;28;20039;-69
2021/12/02 06:45:23;;;;;;;3.78;0.45;;;3.40;99.90;;;;;;5114333;27;20054;-69
2021/12/02 06:47:51;;;;;;;2.97;0.43;;;3.40;99.90;;;;;;5117703;27;20137;-69
2021/12/02 06:50:19;;;;;;;4.25;0.50;;;3.40;99.90;;;;;;5117688;27;20615;-70
2021/12/02 06:52:47;;;;;;;4.45;0.40;;;3.30;99.90;;;;;;5117723;27;20054;-69
2021/12/02 06:55:13;;;;;;;5.50;1.17;;;3.30;99.90;;;;;;5117595;27;20055;-69
2021/12/02 06:57:40;;;;;;;3.38;0.43;;;3.30;99.90;;;;;;5100586;27;20092;-69
2021/12/02 07:00:08;;;;;;;5.03;1.20;;;3.30;99.90;;;;;;5100119;27;20532;-69
2021/12/02 07:02:36;;;;;;;1.52;0.40;;;3.30;99.90;;;;;;5117483;27;20051;-69
2021/12/02 07:05:06;;;;;;;4.07;0.60;;;3.20;99.90;;;;;;5117378;27;20039;-69
2021/12/02 07:07:36;;;;;;;4.20;0.70;;;3.20;99.90;;;;;;5117406;27;20049;-70
2021/12/02 07:10:04;;;;;;;8.30;0.85;;;3.20;99.90;;;;;;5099235;27;20490;-69
2021/12/02 07:12:33;;;;;;;6.90;0.47;;;3.20;99.90;;;;;;5100085;27;20047;-70
2021/12/02 07:15:05;;;;;;;4.43;0.68;;;3.20;99.90;;;;;;5116980;27;20047;-69
2021/12/02 07:17:32;;;;;;;5.95;0.65;;;3.10;99.90;;;;;;5117196;27;20159;-69
2021/12/02 07:19:59;;;;;;;6.50;0.90;;;3.10;99.90;;;;;;5116869;27;20103;-70
2021/12/02 07:22:24;;;;;;;3.15;0.65;;;3.20;99.90;;;;;;5116225;27;20066;-69
2021/12/02 07:24:50;;;;;;;4.53;0.60;;;3.20;99.90;;;;;;5116304;27;20047;-70
2021/12/02 07:27:16;;;;;;;4.50;0.70;;;3.10;99.90;;;;;;5099794;27;20047;-69
2021/12/02 07:29:42;;;;;;;3.38;0.45;;;3.20;99.90;;;;;;5116576;27;20043;-69
2021/12/02 07:32:11;;;;;;;8.38;2.45;;;3.20;99.90;;;;;;5116436;27;20097;-69
2021/12/02 07:34:43;;;;;;;3.88;0.60;;;3.20;99.90;;;;;;5116785;27;20051;-69
2021/12/02 07:37:14;;;;;;;5.32;0.47;;;3.20;99.90;;;;;;5099780;27;20074;-69
2021/12/02 07:39:41;;;;;;;4.40;0.40;;;3.20;99.90;;;;;;5099374;27;20074;-69
2021/12/02 07:42:06;;;;;;;5.13;1.00;;;3.20;99.90;;;;;;5116461;27;20063;-69
2021/12/02 07:44:34;;;;;;;3.38;0.85;;;3.30;99.90;;;;;;5099479;27;20043;-69
2021/12/02 07:47:01;;;;;;;8.40;0.82;;;3.30;99.90;;;;;;5099567;27;20058;-69
2021/12/02 07:49:28;;;;;;;2.72;0.55;;;3.30;99.90;;;;;;5115916;27;20043;-69
2021/12/02 07:51:59;;;;;;;2.53;0.40;;;3.30;99.90;;;;;;5115897;27;20058;-70
2021/12/02 07:54:25;;;;;;;3.67;0.57;;;3.40;99.90;;;;;;5098607;27;20083;-69
2021/12/02 07:56:53;;;;;;;2.15;0.35;;;3.40;99.90;;;;;;5134092;27;20043;-69
2021/12/02 07:59:20;;;;;;;1.95;0.50;;;3.50;99.90;;;;;;5115294;27;20864;-69
2021/12/02 08:01:47;;;;;;;5.72;1.60;;;3.50;99.90;;;;;;5116124;27;20043;-69
2021/12/02 08:04:13;;;;;;;5.70;1.00;;;3.60;99.90;;;;;;5099359;27;20083;-69
2021/12/02 08:06:39;;;;;;;6.97;1.60;;;3.70;99.90;;;;;;5116059;27;20145;-69
2021/12/02 08:09:05;;;;;;;1.25;0.30;;;3.80;99.90;;;;;;5099049;27;20447;-69
2021/12/02 08:11:33;;;;;;;4.25;0.40;;;3.80;99.90;;;;;;5098791;27;20047;-69
2021/12/02 08:13:59;;;;;;;2.78;0.38;;;3.80;99.90;;;;;;5134521;27;20468;-69
2021/12/02 08:16:25;;;;;;;1.52;0.40;;;3.80;99.90;;;;;;5115545;27;20103;-69
2021/12/02 08:18:51;;;;;;;1.70;0.50;;;3.80;99.90;;;;;;5098588;27;20078;-69
2021/12/02 08:21:17;;;;;;;2.15;0.20;;;3.80;99.90;;;;;;5098213;27;20089;-70
2021/12/02 08:23:43;;;;;;;2.58;0.35;;;3.80;99.90;;;;;;5098648;27;20043;-69
2021/12/02 08:26:12;;;;;;;2.30;0.30;;;3.70;99.90;;;;;;5115509;27;20080;-69
2021/12/02 08:28:38;;;;;;;2.85;0.50;;;3.70;99.90;;;;;;5115743;27;20082;-69
2021/12/02 08:31:04;;;;;;;3.60;0.40;;;3.70;99.90;;;;;;5115573;27;20086;-70
2021/12/02 08:33:30;;;;;;;1.67;0.38;;;3.70;99.90;;;;;;5115370;27;20092;-70
2021/12/02 08:35:56;;;;;;;2.03;0.25;;;3.60;99.90;;;;;;5097965;27;20047;-70
2021/12/02 08:38:30;;;;;;;3.30;0.47;;;3.60;99.90;;;;;;5115399;27;20047;-69
2021/12/02 08:40:58;;;;;;;0.45;0.15;;;3.60;99.90;;;;;;5133713;27;20089;-69
2021/12/02 08:43:24;;;;;;;0.75;0.15;;;3.60;99.90;;;;;;5115277;27;20051;-69
2021/12/02 08:45:50;;;;;;;0.80;0.25;;;3.50;99.90;;;;;;5098213;27;20137;-69
2021/12/02 08:48:16;;;;;;;1.35;0.40;;;3.50;99.90;;;;;;5114988;27;20188;-70
2021/12/02 08:50:42;;;;;;;4.45;0.30;;;3.60;99.90;;;;;;5098083;27;20047;-69
2021/12/02 08:53:09;;;;;;;2.35;0.20;;;3.60;99.90;;;;;;5098100;27;20134;-69
2021/12/02 08:55:35;;;;;;;1.58;0.40;;;3.60;99.90;;;;;;5115187;27;20047;-69
2021/12/02 08:58:04;;;;;;;1.38;0.13;;;3.60;99.90;;;;;;5115290;27;20526;-70
2021/12/02 09:00:36;;;;;;;2.30;0.20;;;3.70;99.90;;;;;;5097874;27;20509;-69
2021/12/02 09:03:04;;;;;;;0.57;0.10;;;3.90;99.90;;;;;;5097803;27;20047;-70
2021/12/02 09:05:30;;;;;;;3.60;0.30;;;4.20;99.90;;;;;;5133581;27;20382;-70
2021/12/02 09:07:56;;;;;;;3.55;0.40;;;4.50;99.90;;;;;;5114622;27;20043;-70
2021/12/02 09:10:22;;;;;;;1.70;0.40;;;4.80;99.90;;;;;;5114683;27;20524;-69
2021/12/02 09:12:49;;;;;;;3.10;0.50;;;5.00;99.90;;;;;;5133542;27;20039;-70
2021/12/02 09:15:16;;;;;;;2.75;0.57;;;5.30;99.90;;;;;;5114670;27;20082;-69
2021/12/02 09:17:42;;;;;;;12.07;0.68;;;5.50;99.90;;;;;;5114808;27;20043;-70
2021/12/02 09:20:11;;;;;;;3.55;0.55;;;5.60;99.90;;;;;;5114743;27;20118;-70
2021/12/02 09:22:37;;;;;;;7.40;1.05;;;5.80;99.90;;;;;;5097606;27;20116;-70
2021/12/02 09:25:05;;;;;;;3.95;0.57;;;6.10;99.90;;;;;;5113960;27;20055;-69
2021/12/02 09:27:31;;;;;;;13.65;0.98;;;6.10;99.90;;;;;;5097754;27;20402;-69
2021/12/02 09:29:57;;;;;;;4.35;0.70;;;5.90;99.90;;;;;;5114276;27;20051;-70
2021/12/02 09:32:23;;;;;;;4.35;0.50;;;5.60;99.90;;;;;;5114497;27;20547;-70
2021/12/02 09:34:50;;;;;;;10.52;0.90;;;5.30;99.90;;;;;;5114645;28;20138;-70
2021/12/02 09:37:16;;;;;;;6.82;1.08;;;5.10;99.90;;;;;;5097345;27;20047;-70
2021/12/02 09:39:42;;;;;;;17.23;2.13;;;5.00;99.90;;;;;;5114087;27;20088;-70
2021/12/02 09:42:11;;;;;;;6.80;1.00;;;4.90;99.90;;;;;;5097621;27;20477;-70
2021/12/02 09:44:38;;;;;;;4.45;0.85;;;4.80;99.90;;;;;;5097498;27;20083;-70
2021/12/02 09:47:05;;;;;;;4.47;0.50;;;4.80;99.90;;;;;;5097126;27;20051;-70
2021/12/02 09:49:31;;;;;;;6.65;0.93;;;4.90;99.90;;;;;;5096954;28;20100;-69
2021/12/02 09:52:02;;;;;;;7.38;0.68;;;4.90;99.90;;;;;;5113879;27;20490;-70
2021/12/02 09:54:36;;;;;;;3.50;0.57;;;4.80;99.90;;;;;;5114125;27;20043;-69
2021/12/02 09:57:04;;;;;;;5.53;0.70;;;4.60;99.90;;;;;;5114409;28;20086;-70
2021/12/02 10:02:07;;;;;;;5.18;0.57;;;4.30;99.90;;;;;;5113997;28;20435;-69
2021/12/02 10:05:24;;;;;;;4.38;1.08;;;4.20;99.90;;;;;;5114050;28;20054;-70
2021/12/02 10:07:44;;;;;;;2.78;0.65;;;4.10;99.90;;;;;;5123066;27;20066;-70
2021/12/02 10:10:27;;;;;;;4.43;0.93;;;4.00;99.90;;;;;;5096944;28;20498;-69
2021/12/02 10:13:07;;;;;;;2.38;0.60;;;3.90;99.90;;;;;;5114160;28;20058;-70
2021/12/02 10:15:37;;;;;;;2.63;0.73;;;3.80;99.90;;;;;;5097203;28;20047;-70
2021/12/02 10:18:14;;;;;;;6.82;1.25;;;3.70;99.90;;;;;;5113952;28;20082;-70
2021/12/02 10:20:43;;;;;;;6.75;2.10;;;3.70;99.90;;;;;;5109204;27;20046;-69
2021/12/02 10:23:18;;;;;;;2.25;0.55;;;3.70;99.90;;;;;;5101796;27;20051;-71
2021/12/02 10:25:58;;;;;;;6.00;1.90;;;3.60;99.90;;;;;;5117739;27;20055;-70
2021/12/02 10:28:29;;;;;;;4.18;0.60;;;3.60;99.90;;;;;;5100980;27;20058;-70
2021/12/02 10:30:58;;;;;;;3.20;0.73;;;3.60;99.90;;;;;;5100988;27;20087;-71
2021/12/02 10:33:31;;;;;;;3.17;0.50;;;3.60;99.90;;;;;;5117998;27;20047;-69
2021/12/02 10:35:57;;;;;;;5.65;0.50;;;3.60;99.90;;;;;;5100231;27;20527;-70
2021/12/02 10:38:46;;;;;;;3.55;0.50;;;3.60;99.90;;;;;;5100691;27;20043;-69
2021/12/02 10:41:25;;;;;;;2.70;0.30;;;3.70;99.90;;;;;;5117807;27;20047;-70
2021/12/02 10:44:19;;;;;;;7.28;1.30;;;4.00;99.90;;;;;;5117559;27;20100;-69
2021/12/02 10:47:08;;;;;;;4.57;0.45;;;4.50;99.90;;;;;;5117300;27;20055;-70
2021/12/02 10:49:42;;;;;;;7.15;0.75;;;4.80;99.90;;;;;;5100501;27;20501;-70
2021/12/02 10:52:20;;;;;;;6.63;0.57;;;4.90;99.90;;;;;;5100451;27;20521;-69
2021/12/02 10:54:49;;;;;;;4.07;1.23;;;5.00;99.90;;;;;;5117675;27;20371;-70
2021/12/02 10:57:24;;;;;;;6.30;0.50;;;4.80;99.90;;;;;;5117407;27;20043;-69
2021/12/02 10:59:52;;;;;;;14.68;3.20;;;4.80;99.90;;;;;;5100118;27;20043;-70
2021/12/02 11:02:27;;;;;;;5.55;0.60;;;4.60;99.90;;;;;;5117260;27;20529;-70
2021/12/02 11:05:02;;;;;;;3.80;0.45;;;4.40;99.90;;;;;;5100608;27;20090;-69
2021/12/02 11:07:36;;;;;;;;;;;4.20;99.90;;;;;;5099674;27;20054;-69
2021/12/02 11:10:08;;;;;;;5.53;0.77;;;3.90;99.90;;;;;;5117150;27;19930;-70
2021/12/02 11:12:42;;;;;;;5.28;0.55;;;3.80;99.90;;;;;;5117343;27;20047;-69
2021/12/02 11:15:26;;;;;;;12.10;0.70;;;3.60;99.90;;;;;;5117720;27;20065;-69
2021/12/02 11:17:57;;;;;;;6.28;0.60;;;3.50;99.90;;;;;;5099194;27;20513;-69
2021/12/02 11:20:35;;;;;;;8.55;0.70;;;3.50;99.90;;;;;;5099275;27;20071;-69
2021/12/02 11:23:04;;;;;;;6.28;0.80;;;4.00;99.90;;;;;;5135329;27;20082;-69
2021/12/02 11:25:32;;;;;;;5.03;0.60;;;5.70;99.90;;;;;;5099798;27;20047;-69
2021/12/02 11:28:04;;;;;;;3.00;0.75;;;7.00;99.90;;;;;;5117043;27;20043;-70
2021/12/02 11:30:30;;;;;;;3.30;0.55;;;8.70;99.90;;;;;;5116992;27;20086;-70
2021/12/02 11:33:04;;;;;;;3.40;0.70;;;10.00;99.90;;;;;;5115166;27;20086;-68
2021/12/02 11:35:43;;;;;;;2.85;0.45;;;10.80;99.90;;;;;;5135105;27;20076;-70
2021/12/02 11:38:28;;;;;;;5.40;1.52;;;11.20;99.90;;;;;;5116747;27;20410;-67
2021/12/02 11:40:59;;;;;;;2.67;0.57;;;12.00;99.90;;;;;;5099735;27;20051;-68
2021/12/02 11:43:28;;;;;;;1.65;0.40;;;12.30;98.20;;;;;;5116636;27;20046;-68
2021/12/02 11:45:56;;;;;;;7.43;0.55;;;11.70;99.70;;;;;;5116743;27;20051;-67
2021/12/02 11:48:31;;;;;;;2.90;0.60;;;10.90;99.90;;;;;;5099333;27;20072;-68
2021/12/02 11:50:59;;;;;;;8.52;1.35;;;10.30;99.90;;;;;;5099527;27;20142;-67
2021/12/02 11:53:26;;;;;;;3.72;0.70;;;9.80;99.90;;;;;;5099557;27;20425;-68
2021/12/02 11:56:00;;;;;;;5.65;0.50;;;9.40;99.90;;;;;;5099018;27;20051;-67
2021/12/02 11:58:26;;;;;;;4.90;0.40;;;9.10;99.90;;;;;;5116222;27;20079;-67
2021/12/02 12:00:54;;;;;;;13.77;1.73;;;9.90;99.90;;;;;;5115966;27;20043;-68
2021/12/02 12:03:39;;;;;;;3.45;0.90;;;11.10;99.90;;;;;;5099166;27;20094;-68
2021/12/02 12:06:26;;;;;;;3.13;1.13;;;12.70;99.90;;;;;;5116087;27;20397;-68
2021/12/02 12:08:53;;;;;;;5.55;1.05;;;14.00;98.90;;;;;;5115862;27;20047;-68
2021/12/02 12:11:21;;;;;;;6.88;0.75;;;14.70;96.30;;;;;;5116001;27;20082;-68
2021/12/02 12:13:51;;;;;;;3.72;0.60;;;14.60;94.10;;;;;;5115946;27;20089;-68
2021/12/02 12:16:22;;;;;;;3.67;0.88;;;13.10;94.10;;;;;;5116162;27;20055;-68
2021/12/02 12:18:48;;;;;;;3.97;0.82;;;12.30;97.20;;;;;;5115801;27;20578;-68
2021/12/02 12:21:37;;;;;;;4.05;0.57;;;12.50;97.50;;;;;;5115734;27;20055;-68
2021/12/02 12:24:03;;;;;;;3.83;0.50;;;13.20;95.80;;;;;;5098700;27;20096;-68
2021/12/02 12:26:36;;;;;;;3.30;0.50;;;13.30;95.30;;;;;;5115409;27;20090;-68
2021/12/02 12:31:48;;;;;;;2.35;0.43;;;14.00;92.30;;;;;;5133962;27;20047;-68
2021/12/02 12:34:30;;;;;;;3.22;0.22;;;14.40;84.90;;;;;;5115322;27;20051;-68
2021/12/02 12:37:24;;;;;;;2.13;0.25;;;14.50;67.90;;;;;;5115548;27;20086;-68
2021/12/02 12:40:21;;;;;;;4.05;0.40;;;15.10;76.10;;;;;;5103010;27;20134;-68
2021/12/02 12:42:50;;;;;;;2.58;0.50;;;15.70;72.10;;;;;;5115352;27;20457;-68
2021/12/02 12:45:28;;;;;;;3.33;0.47;;;15.90;71.60;;;;;;5098498;27;20043;-68
2021/12/02 12:48:02;;;;;;;5.72;0.57;;;16.10;69.20;;;;;;5115159;27;20050;-69
2021/12/02 12:50:46;;;;;;;4.60;0.47;;;16.10;63.00;;;;;;5115300;27;20561;-68
2021/12/02 12:53:18;;;;;;;4.85;0.50;;;14.70;64.50;;;;;;5115460;27;20054;-67
2021/12/02 12:55:53;;;;;;;3.63;0.50;;;13.50;79.30;;;;;;5115704;27;20051;-70
2021/12/02 12:58:19;;;;;;;2.45;0.50;;;12.50;87.40;;;;;;5115067;27;20149;-68
2021/12/02 13:00:53;;;;;;;4.63;1.05;;;12.40;91.30;;;;;;5097898;27;20131;-67
2021/12/02 13:03:26;;;;;;;1.15;0.40;;;12.50;89.10;;;;;;5098055;27;20051;-68
2021/12/02 13:05:56;;;;;;;1.65;0.30;;;12.20;91.70;;;;;;5114954;27;20054;-69
2021/12/02 13:08:25;;;;;;;1.27;0.20;;;11.90;93.40;;;;;;5097756;27;20043;-68
2021/12/02 13:10:58;;;;;;;2.47;0.30;;;11.50;93.40;;;;;;5114632;27;20054;-68
2021/12/02 13:13:34;;;;;;;4.93;0.52;;;10.90;94.10;;;;;;5114738;27;20142;-70
2021/12/02 13:16:16;;;;;;;5.32;1.23;;;10.30;95.00;;;;;;5114723;27;20039;-70
2021/12/02 13:18:44;;;;;;;2.45;0.20;;;9.50;96.30;;;;;;5114627;27;20047;-70
2021/12/02 13:21:29;;;;;;;2.53;0.30;;;9.10;98.50;;;;;;5114812;27;20054;-70
2021/12/02 13:23:57;;;;;;;3.13;0.30;;;8.70;99.00;;;;;;5097627;27;20057;-72
2021/12/02 13:26:32;;;;;;;4.25;0.57;;;8.40;99.90;;;;;;5097360;27;20047;-70
2021/12/02 13:29:03;;;;;;;3.15;0.47;;;8.00;99.90;;;;;;5114688;27;20099;-70